Time;durP1;ratioP1;P1;durP2;ratioP2;P2;SDS_P1;SDS_P2;PMS_P1;PMS_P2;Temp;Humidity;BMP_temperature;BMP_pressure;BME280_temperature;BME280_humidity;BME280_pressure;Samples;Min_cycle;Max_cycle;Signal;HPM_P1;HPM_P2
2021/07/20 00:00:14;;;;;;;22.00;20.27;;;17.00;99.90;;;;;;5093534;28;20446;-68
2021/07/20 00:02:43;;;;;;;22.27;20.43;;;17.10;99.90;;;;;;5093439;28;20461;-69
2021/07/20 00:05:12;;;;;;;20.43;18.90;;;17.10;99.90;;;;;;5093191;28;20486;-69
2021/07/20 00:07:42;;;;;;;22.17;20.10;;;17.00;99.90;;;;;;5092885;28;20495;-68
2021/07/20 00:10:12;;;;;;;20.13;18.40;;;17.10;99.90;;;;;;5093209;28;20438;-69
2021/07/20 00:12:43;;;;;;;19.60;17.97;;;17.00;99.90;;;;;;5093080;28;20517;-69
2021/07/20 00:15:12;;;;;;;19.90;18.40;;;17.00;99.90;;;;;;5092991;28;20459;-69
2021/07/20 00:17:43;;;;;;;20.97;19.37;;;17.10;99.90;;;;;;5092778;28;20435;-69
2021/07/20 00:20:12;;;;;;;21.40;19.70;;;17.20;99.90;;;;;;5093023;28;20442;-69
2021/07/20 00:22:39;;;;;;;20.00;18.40;;;17.30;99.90;;;;;;5092777;28;20438;-69
2021/07/20 00:25:06;;;;;;;21.30;19.80;;;17.30;99.90;;;;;;5092559;28;20485;-69
2021/07/20 00:27:33;;;;;;;22.13;20.40;;;17.30;99.90;;;;;;5092867;28;20439;-69
2021/07/20 00:30:02;;;;;;;22.03;20.43;;;17.20;99.90;;;;;;5092701;28;20442;-69
2021/07/20 00:32:38;;;;;;;20.50;18.90;;;17.10;99.90;;;;;;5092517;28;21183;-69
2021/07/20 00:35:11;;;;;;;19.03;17.73;;;17.00;99.90;;;;;;5092673;28;20864;-68
2021/07/20 00:37:39;;;;;;;22.70;20.63;;;16.90;99.90;;;;;;5092608;28;20536;-68
2021/07/20 00:40:09;;;;;;;21.73;19.70;;;16.80;99.90;;;;;;5092487;28;20438;-69
2021/07/20 00:42:42;;;;;;;19.87;18.30;;;16.70;99.90;;;;;;5092489;28;20821;-68
2021/07/20 00:45:12;;;;;;;21.20;19.60;;;16.60;99.90;;;;;;5091422;28;20462;-69
2021/07/20 00:47:40;;;;;;;24.23;22.43;;;16.60;99.90;;;;;;5092536;28;20830;-69
2021/07/20 00:50:09;;;;;;;20.90;19.00;;;16.50;99.90;;;;;;5092482;28;20438;-69
2021/07/20 00:52:36;;;;;;;20.70;19.13;;;16.50;99.90;;;;;;5092247;28;20473;-69
2021/07/20 00:55:04;;;;;;;22.13;20.23;;;16.40;99.90;;;;;;5091926;28;20517;-69
2021/07/20 00:57:31;;;;;;;21.40;19.57;;;16.30;99.90;;;;;;5092289;28;20449;-69
2021/07/20 00:59:58;;;;;;;20.30;18.50;;;16.20;99.90;;;;;;5092260;28;20450;-69
2021/07/20 01:02:27;;;;;;;21.23;19.47;;;16.30;99.90;;;;;;5091673;28;20442;-69
2021/07/20 01:04:54;;;;;;;20.50;19.00;;;16.20;99.90;;;;;;5092380;28;20465;-69
2021/07/20 01:07:22;;;;;;;21.30;19.50;;;16.20;99.90;;;;;;5092328;28;20990;-69
2021/07/20 01:09:49;;;;;;;21.90;20.00;;;16.20;99.90;;;;;;5092270;28;20442;-68
2021/07/20 01:12:16;;;;;;;20.70;18.90;;;16.20;99.90;;;;;;5091947;28;20445;-69
2021/07/20 01:14:44;;;;;;;22.57;20.77;;;16.10;99.90;;;;;;5091618;28;20483;-68
2021/07/20 01:17:13;;;;;;;22.80;20.80;;;16.10;99.90;;;;;;5092027;28;20442;-69
2021/07/20 01:19:51;;;;;;;20.93;19.23;;;16.00;99.90;;;;;;5092041;28;20442;-69
2021/07/20 01:22:22;;;;;;;20.90;19.10;;;16.00;99.90;;;;;;5091616;28;20438;-69
2021/07/20 01:24:50;;;;;;;23.73;21.73;;;15.90;99.90;;;;;;5090571;28;20470;-69
2021/07/20 01:27:17;;;;;;;23.63;21.30;;;15.90;99.90;;;;;;5091505;28;20438;-69
2021/07/20 01:29:45;;;;;;;20.80;18.87;;;15.90;99.90;;;;;;5091818;28;20442;-68
2021/07/20 01:32:13;;;;;;;21.77;20.03;;;15.80;99.90;;;;;;5091455;28;20439;-68
2021/07/20 01:34:40;;;;;;;21.80;19.90;;;15.90;99.90;;;;;;5091342;28;20486;-69
2021/07/20 01:37:08;;;;;;;23.07;20.60;;;15.90;99.90;;;;;;5091641;28;20473;-69
2021/07/20 01:39:37;;;;;;;21.80;19.60;;;15.90;99.90;;;;;;5091565;28;20446;-69
2021/07/20 01:42:06;;;;;;;23.87;21.57;;;16.00;99.90;;;;;;5091423;28;20442;-69
2021/07/20 01:44:33;;;;;;;22.50;20.10;;;16.00;99.90;;;;;;5091256;28;20895;-69
2021/07/20 01:47:00;;;;;;;19.23;17.70;;;16.00;99.90;;;;;;5091155;28;20449;-69
2021/07/20 01:49:28;;;;;;;21.17;19.40;;;16.00;99.90;;;;;;5091328;28;20445;-68
2021/07/20 01:51:55;;;;;;;21.80;19.30;;;15.90;99.90;;;;;;5091322;28;20478;-69
2021/07/20 01:54:22;;;;;;;21.83;19.93;;;15.80;99.90;;;;;;5091176;28;20486;-69
2021/07/20 01:56:49;;;;;;;21.33;19.63;;;15.80;99.90;;;;;;5090717;28;20442;-67
2021/07/20 01:59:17;;;;;;;21.73;19.70;;;15.70;99.90;;;;;;5091400;28;20940;-68
2021/07/20 02:01:52;;;;;;;21.77;19.77;;;15.60;99.90;;;;;;5091211;28;20446;-68
2021/07/20 02:09:51;;;;;;;21.77;19.70;;;15.50;99.90;;;;;;5091392;28;21051;-68
2021/07/20 02:12:19;;;;;;;21.27;19.27;;;15.50;99.90;;;;;;5091143;28;20438;-68
2021/07/20 02:14:49;;;;;;;21.77;19.67;;;15.40;99.90;;;;;;5090537;28;20482;-69
2021/07/20 02:17:17;;;;;;;20.90;19.00;;;15.40;99.90;;;;;;5091251;28;20442;-68
2021/07/20 02:19:48;;;;;;;22.67;20.43;;;15.30;99.90;;;;;;5091223;28;20442;-68
2021/07/20 02:22:20;;;;;;;20.63;18.73;;;15.20;99.90;;;;;;5091050;28;20442;-69
2021/07/20 02:24:50;;;;;;;21.87;18.73;;;15.20;99.90;;;;;;5091202;28;20467;-68
2021/07/20 02:27:19;;;;;;;21.70;19.40;;;15.20;99.90;;;;;;5091134;28;20443;-68
2021/07/20 02:29:48;;;;;;;21.63;19.43;;;15.20;99.90;;;;;;5090818;28;20446;-68
2021/07/20 02:32:17;;;;;;;21.07;19.07;;;15.20;99.90;;;;;;5090693;28;20442;-68
2021/07/20 02:34:46;;;;;;;22.40;20.00;;;15.30;99.90;;;;;;5090463;28;20529;-68
2021/07/20 02:37:14;;;;;;;20.60;18.70;;;15.30;99.90;;;;;;5090841;28;20524;-68
2021/07/20 02:39:42;;;;;;;19.03;17.57;;;15.40;99.90;;;;;;5089320;28;20840;-69
2021/07/20 02:42:10;;;;;;;20.10;18.23;;;15.40;99.90;;;;;;5090118;28;21121;-68
2021/07/20 02:44:38;;;;;;;21.77;19.67;;;15.50;99.90;;;;;;5090860;28;20454;-68
2021/07/20 02:47:07;;;;;;;25.23;22.53;;;15.40;99.90;;;;;;5091212;28;20465;-68
2021/07/20 02:49:37;;;;;;;24.23;20.00;;;15.30;99.90;;;;;;5091182;28;20445;-68
2021/07/20 02:52:05;;;;;;;22.03;19.90;;;15.30;99.90;;;;;;5090712;28;20443;-68
2021/07/20 02:54:32;;;;;;;22.70;19.70;;;15.20;99.90;;;;;;5090919;28;20841;-68
2021/07/20 02:57:00;;;;;;;22.40;19.90;;;15.10;99.90;;;;;;5091157;28;20456;-68
2021/07/20 02:59:28;;;;;;;23.10;20.90;;;15.10;99.90;;;;;;5090499;28;20450;-69
2021/07/20 03:01:59;;;;;;;21.40;19.23;;;15.00;99.90;;;;;;5090958;28;20933;-68
2021/07/20 03:04:27;;;;;;;23.40;21.10;;;15.00;99.90;;;;;;5090968;28;20462;-68
2021/07/20 03:07:00;;;;;;;20.80;19.13;;;15.00;99.90;;;;;;5091013;28;20508;-68
2021/07/20 03:09:30;;;;;;;20.70;18.80;;;14.90;99.90;;;;;;5093915;28;20457;-68
2021/07/20 03:12:02;;;;;;;23.37;19.20;;;14.90;99.90;;;;;;5094433;28;20442;-68
2021/07/20 03:14:30;;;;;;;21.37;19.33;;;14.90;99.90;;;;;;5094305;28;20911;-69
2021/07/20 03:16:57;;;;;;;22.37;20.00;;;14.80;99.90;;;;;;5094690;28;20533;-68
2021/07/20 03:19:28;;;;;;;23.53;20.87;;;14.80;99.90;;;;;;5094358;28;20446;-68
2021/07/20 03:21:57;;;;;;;25.20;19.47;;;14.80;99.90;;;;;;5094319;28;20446;-68
2021/07/20 03:24:25;;;;;;;23.47;21.37;;;14.80;99.90;;;;;;5094186;28;20481;-68
2021/07/20 03:26:55;;;;;;;23.77;21.57;;;14.70;99.90;;;;;;5094390;28;20450;-68
2021/07/20 03:29:22;;;;;;;21.37;19.30;;;14.70;99.90;;;;;;5093983;28;20446;-68
2021/07/20 03:31:51;;;;;;;26.20;21.00;;;14.70;99.90;;;;;;5093897;28;20450;-68
2021/07/20 03:34:20;;;;;;;28.53;21.40;;;14.70;99.90;;;;;;5094225;28;20515;-68
2021/07/20 03:36:49;;;;;;;22.13;20.00;;;14.80;99.90;;;;;;5094222;28;20554;-68
2021/07/20 03:39:16;;;;;;;27.83;19.97;;;14.80;99.90;;;;;;5093663;28;20443;-68
2021/07/20 03:41:43;;;;;;;22.30;20.20;;;14.70;99.90;;;;;;5093960;28;20442;-69
2021/07/20 03:44:11;;;;;;;21.90;19.40;;;14.80;99.90;;;;;;5093714;28;20485;-68
2021/07/20 03:46:40;;;;;;;23.40;21.17;;;14.70;99.90;;;;;;5094004;28;20533;-68
2021/07/20 03:49:08;;;;;;;22.07;19.57;;;14.70;99.90;;;;;;5093632;28;20987;-68
2021/07/20 03:51:35;;;;;;;23.87;19.30;;;14.70;99.90;;;;;;5093726;28;20959;-68
2021/07/20 03:54:09;;;;;;;22.10;19.90;;;14.70;99.90;;;;;;5093749;28;20478;-69
2021/07/20 03:56:37;;;;;;;22.43;19.63;;;14.60;99.90;;;;;;5093871;28;20465;-69
2021/07/20 03:59:08;;;;;;;25.37;21.67;;;14.70;99.90;;;;;;5093634;28;20450;-69
2021/07/20 04:01:39;;;;;;;22.60;20.40;;;14.60;99.90;;;;;;5093380;28;20996;-68
2021/07/20 04:04:10;;;;;;;21.97;19.73;;;14.60;99.90;;;;;;5072551;28;20566;-69
2021/07/20 04:06:40;;;;;;;23.40;20.10;;;14.70;99.90;;;;;;5073881;28;20488;-68
2021/07/20 04:09:10;;;;;;;22.90;19.43;;;14.70;99.90;;;;;;5092381;28;20828;-69
2021/07/20 04:11:37;;;;;;;21.73;19.83;;;14.70;99.90;;;;;;5093088;28;20462;-69
2021/07/20 04:14:05;;;;;;;21.97;19.87;;;14.70;99.90;;;;;;5093161;28;20490;-69
2021/07/20 04:16:32;;;;;;;25.03;20.33;;;14.70;99.90;;;;;;5093249;28;20925;-68
2021/07/20 04:18:59;;;;;;;23.33;19.30;;;14.70;99.90;;;;;;5093065;28;20446;-69
2021/07/20 04:21:26;;;;;;;20.93;18.83;;;14.70;99.90;;;;;;5092966;28;20442;-69
2021/07/20 04:23:53;;;;;;;28.63;22.43;;;14.70;99.90;;;;;;5092930;28;20478;-69
2021/07/20 04:26:23;;;;;;;22.43;20.20;;;14.80;99.90;;;;;;5093227;28;20439;-69
2021/07/20 04:28:50;;;;;;;23.23;20.57;;;14.80;99.90;;;;;;5093036;28;20820;-69
2021/07/20 04:31:20;;;;;;;23.57;21.23;;;14.80;99.90;;;;;;5092884;28;20442;-69
2021/07/20 04:33:50;;;;;;;24.10;20.63;;;14.80;99.90;;;;;;5092879;28;20454;-69
2021/07/20 04:36:17;;;;;;;22.43;20.30;;;14.80;99.90;;;;;;5092936;28;20478;-69
2021/07/20 04:38:44;;;;;;;23.37;19.57;;;14.80;99.90;;;;;;5093001;28;20465;-69
2021/07/20 04:41:10;;;;;;;28.00;20.60;;;14.80;99.90;;;;;;5092619;28;20442;-69
2021/07/20 04:43:39;;;;;;;28.80;23.57;;;14.90;99.90;;;;;;5092701;28;20965;-69
2021/07/20 04:46:07;;;;;;;24.63;20.97;;;15.00;99.90;;;;;;5092699;28;20441;-69
2021/07/20 04:48:35;;;;;;;27.00;19.93;;;15.00;99.90;;;;;;5092680;28;20445;-69
2021/07/20 04:51:02;;;;;;;25.27;20.67;;;15.00;99.90;;;;;;5092590;28;20449;-69
2021/07/20 04:53:29;;;;;;;25.27;21.00;;;15.00;99.90;;;;;;5092446;28;20442;-69
2021/07/20 04:55:56;;;;;;;24.17;21.80;;;15.10;99.90;;;;;;5092456;28;20478;-69
2021/07/20 04:58:23;;;;;;;29.63;22.53;;;15.10;99.90;;;;;;5092489;28;20956;-69
2021/07/20 05:00:52;;;;;;;25.07;22.50;;;15.20;99.90;;;;;;5092488;28;20449;-69
2021/07/20 05:03:21;;;;;;;23.00;20.70;;;15.20;99.90;;;;;;5092390;28;20465;-69
2021/07/20 05:05:50;;;;;;;27.23;24.57;;;15.30;99.90;;;;;;5092297;28;20434;-69
2021/07/20 05:08:20;;;;;;;25.47;23.07;;;15.30;99.90;;;;;;5092454;28;20438;-69
2021/07/20 05:10:49;;;;;;;26.70;22.70;;;15.40;99.90;;;;;;5092092;28;20801;-69
2021/07/20 05:13:17;;;;;;;27.33;24.63;;;15.40;99.90;;;;;;5092090;28;20441;-69
2021/07/20 05:15:45;;;;;;;24.87;22.43;;;15.40;99.90;;;;;;5092126;28;20482;-69
2021/07/20 05:18:14;;;;;;;25.13;22.30;;;15.40;99.90;;;;;;5092276;28;20482;-68
2021/07/20 05:20:42;;;;;;;24.13;21.90;;;15.50;99.90;;;;;;5092045;28;20453;-69
2021/07/20 05:23:13;;;;;;;28.20;25.23;;;15.50;99.90;;;;;;5091806;28;20442;-69
2021/07/20 05:25:41;;;;;;;25.03;22.40;;;15.50;99.90;;;;;;5092166;28;20430;-69
2021/07/20 05:28:11;;;;;;;26.13;23.50;;;15.50;99.90;;;;;;5092123;28;20446;-69
2021/07/20 05:30:40;;;;;;;25.63;23.33;;;15.60;99.90;;;;;;5091593;28;20438;-69
2021/07/20 05:33:07;;;;;;;25.47;22.90;;;15.70;99.90;;;;;;5091557;28;20445;-69
2021/07/20 05:35:36;;;;;;;28.43;26.03;;;15.80;99.90;;;;;;5091733;28;20521;-69
2021/07/20 05:38:04;;;;;;;28.23;24.10;;;15.80;99.90;;;;;;5091842;28;20446;-69
2021/07/20 05:40:31;;;;;;;23.90;21.37;;;15.80;99.90;;;;;;5091733;28;20445;-69
2021/07/20 05:42:58;;;;;;;26.97;24.37;;;15.80;99.90;;;;;;5091582;28;20449;-69
2021/07/20 05:45:27;;;;;;;27.57;24.83;;;15.90;99.90;;;;;;5091632;28;20992;-69
2021/07/20 05:47:55;;;;;;;26.13;23.57;;;16.00;99.90;;;;;;5091802;28;20438;-69
2021/07/20 05:50:23;;;;;;;27.63;25.13;;;16.00;99.90;;;;;;5091691;28;20446;-69
2021/07/20 05:52:52;;;;;;;29.93;27.43;;;16.10;99.90;;;;;;5091173;28;20455;-69
2021/07/20 05:55:21;;;;;;;31.03;28.43;;;16.20;99.90;;;;;;5091498;28;20536;-69
2021/07/20 05:57:49;;;;;;;27.57;24.97;;;16.20;99.90;;;;;;5091681;28;20477;-69
2021/07/20 06:00:21;;;;;;;31.23;25.47;;;16.30;99.90;;;;;;5091755;28;20438;-69
2021/07/20 06:02:49;;;;;;;27.53;24.97;;;16.30;99.90;;;;;;5091280;28;20934;-69
2021/07/20 06:05:16;;;;;;;29.20;26.60;;;16.40;99.90;;;;;;5091537;28;20462;-69
2021/07/20 06:07:45;;;;;;;31.97;29.07;;;16.50;99.90;;;;;;5091438;28;20895;-69
2021/07/20 06:10:18;;;;;;;30.37;27.60;;;16.50;99.90;;;;;;5091557;28;20821;-69
2021/07/20 06:12:46;;;;;;;28.10;25.70;;;16.50;99.90;;;;;;5091461;28;20450;-69
2021/07/20 06:15:14;;;;;;;35.77;28.17;;;16.70;99.90;;;;;;5091268;28;20490;-69
2021/07/20 06:17:41;;;;;;;31.90;28.97;;;16.70;99.90;;;;;;5091258;28;20453;-68
2021/07/20 06:20:09;;;;;;;30.30;27.40;;;16.70;99.90;;;;;;5091364;28;20443;-69
2021/07/20 06:22:44;;;;;;;31.20;28.43;;;16.80;99.90;;;;;;5091243;28;20442;-69
2021/07/20 06:25:14;;;;;;;28.60;26.10;;;16.90;99.90;;;;;;5091136;28;20976;-69
2021/07/20 06:27:43;;;;;;;30.30;27.67;;;17.00;99.90;;;;;;5091243;28;20453;-69
2021/07/20 06:30:12;;;;;;;27.80;25.20;;;17.00;99.90;;;;;;5091264;28;20450;-69
2021/07/20 06:32:40;;;;;;;29.37;26.77;;;17.10;99.90;;;;;;5091079;28;20441;-69
2021/07/20 06:35:09;;;;;;;29.67;26.80;;;17.20;99.90;;;;;;5091025;28;20496;-69
2021/07/20 06:37:36;;;;;;;29.60;26.90;;;17.30;99.90;;;;;;5091222;28;20454;-68
2021/07/20 06:40:03;;;;;;;28.10;25.40;;;17.40;99.90;;;;;;5091213;28;20445;-69
2021/07/20 06:42:32;;;;;;;30.00;26.77;;;17.50;99.90;;;;;;5090933;28;20451;-69
2021/07/20 06:45:00;;;;;;;28.57;26.10;;;17.60;99.90;;;;;;5095031;28;20977;-69
2021/07/20 06:47:27;;;;;;;29.77;27.50;;;17.70;99.90;;;;;;5095008;28;20450;-69
2021/07/20 06:49:57;;;;;;;27.47;25.10;;;17.80;99.90;;;;;;5095053;28;20947;-69
2021/07/20 06:52:24;;;;;;;28.70;26.13;;;17.90;99.90;;;;;;5094767;28;20438;-69
2021/07/20 06:54:50;;;;;;;27.83;25.63;;;18.00;99.90;;;;;;5094813;28;20462;-69
2021/07/20 06:57:19;;;;;;;32.03;29.17;;;18.10;99.90;;;;;;5094879;28;20474;-69
2021/07/20 06:59:49;;;;;;;28.73;26.33;;;18.10;99.90;;;;;;5094949;28;20953;-69
2021/07/20 07:02:20;;;;;;;32.17;29.60;;;18.10;99.90;;;;;;5094576;28;20816;-69
2021/07/20 07:04:53;;;;;;;29.13;26.23;;;17.90;99.90;;;;;;5094599;28;20494;-69
2021/07/20 07:07:21;;;;;;;30.50;27.53;;;17.90;99.90;;;;;;5094912;28;20930;-69
2021/07/20 07:09:50;;;;;;;28.90;26.50;;;18.10;99.90;;;;;;5094246;28;20476;-69
2021/07/20 07:12:18;;;;;;;28.03;25.60;;;18.20;99.90;;;;;;5094464;28;20500;-69
2021/07/20 07:14:47;;;;;;;27.30;25.27;;;18.20;99.90;;;;;;5094409;28;20485;-69
2021/07/20 07:17:14;;;;;;;29.13;26.90;;;18.30;99.90;;;;;;5094340;28;20551;-70
2021/07/20 07:19:45;;;;;;;31.90;29.30;;;18.40;99.90;;;;;;5094486;28;20438;-69
2021/07/20 07:22:13;;;;;;;27.80;25.73;;;18.30;99.90;;;;;;5094232;28;20442;-69
2021/07/20 07:24:40;;;;;;;28.20;25.90;;;18.30;99.90;;;;;;5094256;28;20836;-70
2021/07/20 07:27:08;;;;;;;29.77;27.33;;;18.40;99.90;;;;;;5094511;28;20814;-69
2021/07/20 07:29:35;;;;;;;32.47;29.80;;;18.50;99.90;;;;;;5094315;28;20446;-69
2021/07/20 07:32:04;;;;;;;27.73;25.60;;;18.60;99.90;;;;;;5093862;28;20435;-69
2021/07/20 07:34:30;;;;;;;28.57;26.20;;;18.70;99.90;;;;;;5094066;28;20462;-69
2021/07/20 07:36:59;;;;;;;31.50;28.97;;;18.90;99.90;;;;;;5094063;28;20482;-70
2021/07/20 07:39:27;;;;;;;31.10;28.73;;;18.90;99.90;;;;;;5094076;28;20450;-70
2021/07/20 07:41:54;;;;;;;28.57;26.40;;;19.00;99.90;;;;;;5093728;28;20442;-70
2021/07/20 07:44:23;;;;;;;29.00;26.50;;;19.10;99.90;;;;;;5093895;28;20836;-69
2021/07/20 07:46:51;;;;;;;29.23;26.97;;;19.20;99.90;;;;;;5093922;28;20439;-69
2021/07/20 07:49:20;;;;;;;31.83;29.07;;;19.30;99.90;;;;;;5094065;28;20438;-69
2021/07/20 07:51:50;;;;;;;27.40;25.27;;;19.40;99.90;;;;;;5093569;28;20466;-69
2021/07/20 07:54:18;;;;;;;31.50;29.20;;;19.50;99.90;;;;;;5093621;28;20459;-70
2021/07/20 07:56:45;;;;;;;29.40;27.20;;;19.60;99.90;;;;;;5093615;28;20481;-69
2021/07/20 07:59:14;;;;;;;29.10;26.57;;;19.90;99.90;;;;;;5093775;28;20442;-69
2021/07/20 08:01:45;;;;;;;27.60;25.50;;;20.10;99.90;;;;;;5093428;28;20922;-69
2021/07/20 08:04:13;;;;;;;26.07;24.07;;;20.20;99.90;;;;;;5093636;28;20467;-69
2021/07/20 08:06:42;;;;;;;27.57;25.40;;;20.60;99.90;;;;;;5093622;28;20434;-70
2021/07/20 08:09:10;;;;;;;28.53;26.20;;;20.60;99.90;;;;;;5093633;28;20450;-69
2021/07/20 08:11:37;;;;;;;32.40;29.90;;;20.50;99.90;;;;;;5093230;28;20945;-70
2021/07/20 08:14:06;;;;;;;26.80;24.73;;;20.60;99.90;;;;;;5093356;28;20466;-70
2021/07/20 08:16:39;;;;;;;28.23;26.13;;;20.80;99.90;;;;;;5093276;28;20478;-69
2021/07/20 08:19:07;;;;;;;28.43;26.27;;;20.80;99.90;;;;;;5093339;28;20446;-70
2021/07/20 08:21:34;;;;;;;29.23;26.90;;;21.00;99.90;;;;;;5093180;28;20439;-69
2021/07/20 08:24:03;;;;;;;31.27;28.43;;;21.00;99.90;;;;;;5117969;22;20513;-66
2021/07/20 08:26:34;;;;;;;29.50;27.13;;;20.70;99.90;;;;;;5092941;28;20439;-66
2021/07/20 08:29:04;;;;;;;27.87;25.43;;;20.80;99.90;;;;;;5072888;28;20470;-66
2021/07/20 08:31:37;;;;;;;28.37;26.10;;;20.90;99.90;;;;;;5072750;28;20805;-67
2021/07/20 08:34:05;;;;;;;27.23;25.13;;;20.90;99.90;;;;;;5072764;28;20482;-66
2021/07/20 08:36:34;;;;;;;29.23;26.80;;;21.10;99.90;;;;;;5072724;28;20498;-66
2021/07/20 08:39:04;;;;;;;30.27;27.80;;;21.00;99.90;;;;;;5072835;28;20470;-66
2021/07/20 08:41:48;;;;;;;27.87;25.83;;;21.20;99.90;;;;;;5072593;28;20447;-66
2021/07/20 08:44:28;;;;;;;27.67;25.73;;;21.50;99.90;;;;;;5072567;28;20641;-66
2021/07/20 08:47:04;;;;;;;27.17;24.87;;;21.60;99.90;;;;;;5072546;28;20489;-66
2021/07/20 08:49:52;;;;;;;29.03;26.67;;;21.80;99.90;;;;;;5072358;28;20458;-66
2021/07/20 08:52:28;;;;;;;28.43;26.50;;;21.70;99.90;;;;;;5072210;28;20501;-66
2021/07/20 08:54:59;;;;;;;27.70;25.80;;;21.80;99.50;;;;;;5072343;28;20829;-66
2021/07/20 08:57:31;;;;;;;28.60;26.53;;;21.60;99.10;;;;;;5072187;28;20478;-66
2021/07/20 09:00:06;;;;;;;28.97;26.97;;;21.80;98.10;;;;;;5072257;28;20856;-66
2021/07/20 09:02:40;;;;;;;29.80;27.00;;;22.00;98.00;;;;;;5071926;28;20439;-66
2021/07/20 09:05:16;;;;;;;28.67;26.50;;;22.20;98.70;;;;;;5071667;28;20815;-66
2021/07/20 09:07:52;;;;;;;26.60;24.90;;;22.50;98.20;;;;;;5071984;28;20446;-67
2021/07/20 09:10:24;;;;;;;29.13;26.60;;;22.70;98.00;;;;;;5072029;28;20443;-66
2021/07/20 09:12:53;;;;;;;31.63;29.33;;;22.70;97.90;;;;;;5071699;28;20449;-66
2021/07/20 09:15:21;;;;;;;31.30;29.00;;;23.20;96.60;;;;;;5071808;28;20474;-66
2021/07/20 09:17:55;;;;;;;31.53;29.47;;;23.30;94.60;;;;;;5071758;28;20539;-67
2021/07/20 09:20:24;;;;;;;31.17;29.27;;;23.50;94.30;;;;;;5071971;28;20466;-67
2021/07/20 09:22:55;;;;;;;30.57;28.70;;;23.60;94.80;;;;;;5071578;28;20443;-66
2021/07/20 09:25:29;;;;;;;30.80;28.97;;;23.40;92.80;;;;;;5071760;28;20478;-66
2021/07/20 09:28:02;;;;;;;28.77;26.97;;;23.10;92.90;;;;;;5071771;28;20441;-67
2021/07/20 09:30:32;;;;;;;27.30;25.53;;;23.30;92.40;;;;;;5071746;28;20439;-66
2021/07/20 09:33:13;;;;;;;26.63;24.93;;;23.40;91.90;;;;;;5071900;28;20451;-66
2021/07/20 09:35:46;;;;;;;26.90;25.20;;;23.60;92.50;;;;;;5071553;28;20824;-67
2021/07/20 09:38:41;;;;;;;28.83;26.93;;;24.00;91.40;;;;;;5071516;28;20443;-67
2021/07/20 09:41:23;;;;;;;26.50;24.93;;;24.20;90.30;;;;;;5071362;28;20451;-67
2021/07/20 09:44:02;;;;;;;27.17;25.67;;;24.60;88.20;;;;;;5071404;28;20469;-66
2021/07/20 09:46:40;;;;;;;28.13;26.47;;;24.70;84.00;;;;;;5071552;28;20447;-67
2021/07/20 09:49:17;;;;;;;29.33;27.60;;;24.90;86.70;;;;;;5071335;28;20451;-67
2021/07/20 09:52:17;;;;;;;31.43;29.23;;;24.80;83.50;;;;;;5071215;28;20965;-67
2021/07/20 09:55:02;;;;;;;27.73;26.00;;;25.00;78.90;;;;;;5068703;28;21058;-67
2021/07/20 09:57:45;;;;;;;26.33;24.93;;;24.90;76.50;;;;;;5071262;28;21040;-67
2021/07/20 10:00:18;;;;;;;26.70;24.93;;;24.90;75.90;;;;;;5071227;28;20922;-67
2021/07/20 10:02:52;;;;;;;26.20;24.60;;;25.00;73.60;;;;;;5071161;28;20483;-67
2021/07/20 10:05:23;;;;;;;27.20;25.57;;;25.30;72.60;;;;;;5071296;28;20463;-67
2021/07/20 10:07:54;;;;;;;29.00;27.30;;;25.30;70.00;;;;;;5071174;28;20818;-67
2021/07/20 10:10:28;;;;;;;29.27;27.30;;;25.20;72.00;;;;;;5071060;28;20965;-67
2021/07/20 10:13:04;;;;;;;28.83;27.17;;;25.60;71.20;;;;;;5070974;28;20854;-67
2021/07/20 10:15:46;;;;;;;26.73;25.13;;;26.00;68.40;;;;;;5071243;28;20469;-67
2021/07/20 10:18:20;;;;;;;30.50;28.80;;;25.90;65.80;;;;;;5074087;28;20955;-67
2021/07/20 10:20:51;;;;;;;26.60;24.90;;;25.50;66.60;;;;;;5075457;28;20451;-67
2021/07/20 10:23:23;;;;;;;28.10;25.97;;;25.20;65.70;;;;;;5075048;28;20937;-67
2021/07/20 10:25:59;;;;;;;25.40;23.90;;;25.30;67.70;;;;;;5075135;28;20585;-66
2021/07/20 10:28:32;;;;;;;25.77;24.47;;;25.60;68.50;;;;;;5075190;28;20465;-67
2021/07/20 10:31:05;;;;;;;27.00;25.10;;;25.80;66.90;;;;;;5074843;28;20443;-66
2021/07/20 10:33:39;;;;;;;26.63;25.00;;;25.80;63.60;;;;;;5074848;28;20538;-67
2021/07/20 10:36:10;;;;;;;28.53;26.80;;;25.60;62.50;;;;;;5074910;28;20443;-67
2021/07/20 10:38:42;;;;;;;28.80;27.20;;;26.10;62.40;;;;;;5075044;28;20443;-66
2021/07/20 10:41:13;;;;;;;27.37;25.57;;;25.80;61.30;;;;;;5074687;28;20447;-66
2021/07/20 10:43:47;;;;;;;31.20;29.27;;;25.90;63.30;;;;;;5074813;28;20447;-66
2021/07/20 10:46:17;;;;;;;29.17;27.77;;;26.10;62.50;;;;;;5074773;28;20438;-66
2021/07/20 10:48:49;;;;;;;25.73;24.30;;;26.20;60.30;;;;;;5074681;28;20447;-66
2021/07/20 10:51:20;;;;;;;30.03;28.43;;;26.20;60.80;;;;;;5074771;28;20443;-66
2021/07/20 10:53:55;;;;;;;31.83;29.97;;;26.50;61.90;;;;;;5074593;28;20748;-66
2021/07/20 10:56:29;;;;;;;28.57;27.17;;;26.90;59.60;;;;;;5074602;28;20949;-66
2021/07/20 10:59:09;;;;;;;26.77;25.27;;;27.50;58.60;;;;;;5074735;28;20447;-66
2021/07/20 11:01:46;;;;;;;30.20;28.80;;;27.60;57.30;;;;;;5074376;28;20442;-66
2021/07/20 11:04:20;;;;;;;29.07;27.57;;;27.90;57.30;;;;;;5074529;28;20500;-66
2021/07/20 11:06:48;;;;;;;29.87;28.17;;;27.80;54.40;;;;;;5074465;28;20504;-66
2021/07/20 11:09:20;;;;;;;26.57;24.90;;;27.70;54.40;;;;;;5074340;28;20474;-66
2021/07/20 11:11:52;;;;;;;25.67;23.97;;;28.00;55.60;;;;;;5074088;28;20450;-66
2021/07/20 11:14:26;;;;;;;26.43;24.93;;;28.70;54.60;;;;;;5074274;28;20467;-66
2021/07/20 11:16:55;;;;;;;26.60;25.20;;;28.50;50.30;;;;;;5074173;28;20479;-66
2021/07/20 11:19:23;;;;;;;25.17;23.70;;;28.50;50.00;;;;;;5074304;28;20442;-67
2021/07/20 11:21:50;;;;;;;27.97;26.17;;;28.70;51.60;;;;;;5073911;28;20446;-67
2021/07/20 11:24:18;;;;;;;27.10;25.70;;;28.50;52.40;;;;;;5073806;28;20478;-66
2021/07/20 11:26:46;;;;;;;26.50;25.27;;;28.80;50.40;;;;;;5073980;28;20465;-66
2021/07/20 11:29:13;;;;;;;26.70;25.10;;;29.30;51.00;;;;;;5073364;28;20828;-67
2021/07/20 11:31:45;;;;;;;27.33;25.80;;;30.20;48.30;;;;;;5073739;28;20450;-67
2021/07/20 11:34:18;;;;;;;26.60;25.30;;;30.80;46.80;;;;;;5073966;28;20560;-67
2021/07/20 11:36:46;;;;;;;28.37;27.07;;;30.80;45.90;;;;;;5073870;28;20481;-67
2021/07/20 11:39:18;;;;;;;27.70;26.10;;;30.70;46.50;;;;;;5073942;28;20443;-67
2021/07/20 11:41:54;;;;;;;27.13;25.63;;;31.20;44.70;;;;;;5073665;28;20435;-66
2021/07/20 11:44:32;;;;;;;27.90;26.33;;;29.70;44.40;;;;;;5073612;28;20466;-66
2021/07/20 11:47:05;;;;;;;27.20;25.90;;;30.50;44.80;;;;;;5073732;28;20801;-67
2021/07/20 11:49:40;;;;;;;27.33;26.07;;;32.90;43.20;;;;;;5073745;28;20445;-67
2021/07/20 11:52:15;;;;;;;27.58;26.17;;;35.10;39.80;;;;;;5073346;28;20211;-67
2021/07/20 11:54:53;;;;;;;27.38;26.17;;;36.10;34.90;;;;;;5073477;28;20664;-67
2021/07/20 11:57:55;;;;;;;28.27;26.75;;;38.30;34.40;;;;;;5073374;28;20224;-67
2021/07/20 12:00:47;;;;;;;27.55;26.25;;;37.70;33.60;;;;;;5073381;28;20203;-67
2021/07/20 12:03:20;;;;;;;27.77;26.38;;;39.70;29.90;;;;;;5073088;28;20205;-67
2021/07/20 12:06:16;;;;;;;27.60;26.40;;;40.40;28.70;;;;;;5073172;28;20224;-67
2021/07/20 12:09:08;;;;;;;27.65;26.27;;;40.20;28.10;;;;;;5073326;28;20192;-67
2021/07/20 12:11:41;;;;;;;28.40;26.90;;;41.70;27.70;;;;;;5066146;28;20255;-67
2021/07/20 12:14:10;;;;;;;28.08;26.70;;;42.90;26.10;;;;;;5073105;28;20216;-67
2021/07/20 12:16:41;;;;;;;28.17;26.88;;;42.00;25.30;;;;;;5073014;28;20204;-68
2021/07/20 12:19:10;;;;;;;27.75;26.35;;;42.40;25.20;;;;;;5072963;28;20236;-67
2021/07/20 12:21:39;;;;;;;28.40;27.00;;;43.00;25.10;;;;;;5072757;28;20212;-68
2021/07/20 12:24:10;;;;;;;27.63;26.33;;;45.30;24.10;;;;;;5072758;28;20324;-67
2021/07/20 12:26:38;;;;;;;28.60;27.30;;;45.50;22.90;;;;;;5072959;28;20269;-67
2021/07/20 12:29:10;;;;;;;27.88;26.58;;;46.20;23.10;;;;;;5072820;28;20247;-67
2021/07/20 12:31:39;;;;;;;28.15;26.95;;;44.80;22.30;;;;;;5072540;28;20204;-67
2021/07/20 12:34:06;;;;;;;29.38;27.92;;;42.60;24.30;;;;;;5072720;28;20235;-67
2021/07/20 12:36:35;;;;;;;28.00;26.52;;;44.70;24.00;;;;;;5072671;28;20200;-67
2021/07/20 12:39:10;;;;;;;27.48;26.20;;;44.70;22.80;;;;;;5072659;28;20252;-67
2021/07/20 12:41:41;;;;;;;27.70;26.20;;;45.50;23.30;;;;;;5071572;28;20207;-67
2021/07/20 12:44:08;;;;;;;28.05;26.75;;;45.80;22.80;;;;;;5072503;28;20232;-67
2021/07/20 12:46:36;;;;;;;27.38;26.05;;;46.00;22.90;;;;;;5072524;28;20209;-67
2021/07/20 12:49:04;;;;;;;28.25;26.95;;;47.00;22.40;;;;;;5072655;28;20292;-67